Green Lofoten — P3MG8 — position and weather

sailwx.info

Track history (hours):
 
Tides and Currents Weather Stations Pressure Air Temp Water Temp Dewpoint Dewpoint Depression Visibility Wind Speed Wind Dir Waves Ship Positions

Green Lofoten

Last reported at 2015-Jan-14 13:18 UTC. Time now 2015-Jan-30 10:57 UTC.
Position N 54°14' W 005°10'.
Warning: this ship's position is 15 days out of date.

Length 98 m; draft 6.3 m.

Type: Cargo ship. MMSI: 212857000.

Date/timePositionNaut miles runAvg speedWind from/ knotsBaromVisibWave heightAir tempDewpointWater temp
2015-Jan-14 13:18N 54°14' W 005°10'5 6.9
2015-Jan-14 12:33N 54°19' W 005°10'7 7.1
2015-Jan-14 11:33N 54°26' W 005°10'7 7.0
2015-Jan-14 10:33N 54°33' W 005°10'7 6.9
2015-Jan-14 09:33N 54°40' W 005°12'8 7.6
2015-Jan-14 08:33N 54°46' W 005°20'8 7.7
2015-Jan-14 07:33N 54°52' W 005°28'9 8.0
2015-Jan-14 06:29N 54°59' W 005°37'40 9.1
2015-Jan-14 02:07N 55°27' W 006°26'610.1
2015-Jan-14 01:33N 55°30' W 006°34'1312.7
2015-Jan-14 00:33N 55°37' W 006°53'147 9.0
2015-Jan-13 08:12N 58°02' W 006°14'812.2
2015-Jan-13 07:33N 58°10' W 006°10'2 2.4
2015-Jan-13 06:33N 58°12' W 006°07'2 1.6
2015-Jan-13 05:33N 58°13' W 006°06'2 2.2
2015-Jan-13 04:33N 58°15' W 006°03'2 2.1
2015-Jan-13 03:33N 58°17' W 006°01'1 1.4
2015-Jan-13 02:33N 58°18' W 006°01'1 1.2
2015-Jan-13 01:33N 58°19' W 006°02'1 1.2
2015-Jan-13 00:33N 58°20' W 006°04'2 1.8
2015-Jan-12 23:33N 58°22' W 006°04'2 1.8
2015-Jan-12 22:33N 58°24' W 006°05'1 0.6
2015-Jan-12 21:33N 58°23' W 006°05'12 3.6
2015-Jan-12 18:16N 58°11' W 006°08'3 4.6
2015-Jan-12 17:34N 58°09' W 006°12'6 6.2
2015-Jan-12 16:33N 58°03' W 006°18'1 0.4
2015-Jan-12 13:22N 58°04' W 006°17'2 2.1
2015-Jan-12 12:27N 58°06' W 006°17'1 1.4
2015-Jan-12 11:33N 58°07' W 006°15'1 1.5
2015-Jan-12 10:33N 58°08' W 006°13'1 1.2
2015-Jan-12 09:33N 58°09' W 006°11'1 1.3
2015-Jan-12 08:33N 58°10' W 006°09'1 1.2
2015-Jan-12 07:33N 58°11' W 006°08'1 1.3
2015-Jan-12 06:34N 58°12' W 006°07'1 1.3
2015-Jan-12 05:33N 58°13' W 006°06'1 1.4
2015-Jan-12 04:33N 58°15' W 006°05'2 2.0
2015-Jan-12 03:34N 58°17' W 006°04'5 5.4
2015-Jan-12 02:33N 58°11' W 006°06'1 1.3
2015-Jan-12 01:33N 58°10' W 006°08'1 1.0
2015-Jan-12 00:33N 58°11' W 006°07'4 0.6
2015-Jan-11 17:33N 58°15' W 006°04'1 0.8
2015-Jan-11 16:33N 58°16' W 006°04'3 2.6
2015-Jan-11 15:33N 58°18' W 006°05'5 5.2
2015-Jan-11 14:33N 58°13' W 006°05'5 5.0
2015-Jan-11 13:33N 58°09' W 006°11'4 4.2
2015-Jan-11 12:33N 58°05' W 006°15'5 4.5
2015-Jan-11 11:33N 58°01' W 006°16'1 0.9
2015-Jan-11 10:33N 58°02' W 006°17'4 3.6
2015-Jan-11 09:33N 58°05' W 006°16'3 3.4
2015-Jan-11 08:33N 58°08' W 006°12'3 2.8
2015-Jan-11 07:33N 58°10' W 006°08'3 3.4
2015-Jan-11 06:33N 58°12' W 006°03'3 3.2
2015-Jan-11 05:34N 58°14' W 005°58'3 3.5
2015-Jan-11 04:33N 58°12' W 006°03'4 4.5
2015-Jan-11 03:33N 58°09' W 006°10'4 3.9
2015-Jan-11 02:33N 58°06' W 006°15'3 3.3
2015-Jan-11 01:33N 58°03' W 006°16'3 3.3
2015-Jan-11 00:33N 57°60' W 006°17'3 2.7
2015-Jan-10 23:33N 58°03' W 006°16'5 5.1
2015-Jan-10 22:33N 58°08' W 006°14'5 5.0
2015-Jan-10 21:33N 58°10' W 006°06'5 4.8
2015-Jan-10 20:33N 58°13' W 005°59'7 7.4
2015-Jan-10 19:33N 58°17' W 005°47'1310.0
2015-Jan-10 18:15N 58°23' W 005°25'195 7.7
2015-Jan-09 17:05N 61°36' W 006°26'611.8
2015-Jan-09 16:33N 61°42' W 006°27'1212.2
2015-Jan-09 15:33N 61°55' W 006°28'1312.8
2015-Jan-09 14:34N 62°07' W 006°31'1110.1
2015-Jan-09 13:29N 62°14' W 006°48'0 0.0
2015-Jan-09 12:32N 62°14' W 006°48'0 0.0
2015-Jan-09 11:26N 62°14' W 006°48'0 0.0
2015-Jan-09 10:26N 62°14' W 006°48'0 0.0
2015-Jan-09 09:26N 62°14' W 006°48'0 0.0
2015-Jan-09 08:29N 62°14' W 006°48'0 0.0
2015-Jan-09 07:32N 62°14' W 006°48'0 0.0
2015-Jan-09 06:32N 62°14' W 006°48'0 0.0
2015-Jan-09 05:32N 62°14' W 006°48'0 0.0
2015-Jan-09 04:32N 62°14' W 006°48'0 0.0
2015-Jan-09 03:32N 62°14' W 006°48'0 0.0
2015-Jan-09 02:11N 62°14' W 006°48'0 0.0
2015-Jan-09 01:23N 62°14' W 006°48'0 0.0
2015-Jan-09 00:32N 62°14' W 006°48'0 0.0
2015-Jan-08 22:32N 62°14' W 006°48'0 0.0
2015-Jan-08 21:32N 62°14' W 006°48'0 0.0
2015-Jan-08 20:32N 62°14' W 006°48'0 0.0
2015-Jan-08 19:32N 62°14' W 006°48'0 0.0
2015-Jan-08 18:32N 62°14' W 006°48'0 0.0
2015-Jan-08 17:32N 62°14' W 006°48'0 0.0
2015-Jan-08 16:32N 62°14' W 006°48'0 0.0
2015-Jan-08 15:32N 62°14' W 006°48'0 0.0
2015-Jan-08 14:32N 62°14' W 006°48'0 0.0
2015-Jan-08 13:32N 62°14' W 006°48'0 0.0
2015-Jan-08 12:32N 62°14' W 006°48'0 0.0
2015-Jan-08 11:32N 62°14' W 006°48'0 0.0
2015-Jan-08 08:18N 62°14' W 006°48'0 0.0
2015-Jan-08 07:27N 62°14' W 006°48'0 0.0
2015-Jan-08 06:26N 62°14' W 006°48'0 0.0
2015-Jan-08 05:29N 62°14' W 006°48'0 0.0
2015-Jan-08 04:32N 62°14' W 006°48'0 0.0
2015-Jan-08 03:47N 62°14' W 006°48'0 0.0
2015-Jan-07 20:32N 62°14' W 006°48'0 0.0
2015-Jan-07 19:29N 62°14' W 006°48'0 0.0
2015-Jan-07 18:32N 62°14' W 006°48'0 0.0
2015-Jan-07 17:29N 62°14' W 006°48'0 0.0
2015-Jan-07 16:32N 62°14' W 006°48'0 0.0
2015-Jan-07 15:32N 62°14' W 006°48'0 0.0
2015-Jan-07 14:32N 62°14' W 006°48'0 0.0
2015-Jan-07 13:32N 62°14' W 006°48'0 0.0
2015-Jan-07 12:33N 62°14' W 006°48'0 0.0
2015-Jan-07 11:33N 62°14' W 006°48'0 0.0
2015-Jan-07 10:27N 62°14' W 006°48'0 0.0
2015-Jan-07 09:33N 62°14' W 006°48'0 0.0
2015-Jan-07 08:33N 62°14' W 006°48'0 0.0
2015-Jan-07 07:27N 62°14' W 006°48'0 0.0
2015-Jan-07 06:30N 62°14' W 006°48'0 0.0
2015-Jan-07 05:33N 62°14' W 006°48'0 0.0
2015-Jan-07 04:33N 62°14' W 006°48'0 0.0
2015-Jan-07 03:30N 62°14' W 006°48'0 0.0
2015-Jan-07 02:33N 62°14' W 006°48'0 0.0
2015-Jan-07 01:33N 62°14' W 006°48'0 0.0
2015-Jan-07 00:30N 62°14' W 006°48'0 0.0
2015-Jan-06 23:33N 62°14' W 006°48'0 0.0
2015-Jan-06 22:33N 62°14' W 006°48'0 0.0
2015-Jan-06 21:33N 62°14' W 006°48'0 0.0
2015-Jan-06 20:33N 62°14' W 006°48'0 0.0
2015-Jan-06 19:33N 62°14' W 006°48'0 0.0
2015-Jan-06 18:33N 62°14' W 006°48'0 0.0
2015-Jan-06 17:32N 62°14' W 006°48'0 0.0
2015-Jan-06 16:32N 62°14' W 006°48'0 0.0
2015-Jan-06 15:32N 62°14' W 006°48'0 0.0
2015-Jan-06 14:32N 62°14' W 006°48'0 0.0
2015-Jan-06 13:32N 62°14' W 006°48'0 0.0
2015-Jan-06 12:32N 62°14' W 006°48'0 0.0
2015-Jan-06 11:32N 62°14' W 006°48'0 0.0
2015-Jan-06 10:32N 62°14' W 006°48'0 0.0
2015-Jan-06 09:26N 62°14' W 006°48'0 0.0
2015-Jan-06 08:32N 62°14' W 006°48'0 0.0
2015-Jan-06 07:32N 62°14' W 006°48'0 0.0
2015-Jan-06 06:32N 62°14' W 006°48'0 0.0
2015-Jan-06 05:32N 62°14' W 006°48'0 0.0
2015-Jan-06 04:29N 62°14' W 006°48'0 0.0
2015-Jan-06 03:32N 62°14' W 006°48'0 0.0
2015-Jan-06 02:32N 62°14' W 006°48'0 0.0
2015-Jan-06 01:32N 62°14' W 006°48'0 0.0
2015-Jan-06 00:32N 62°14' W 006°48'0 0.0
2015-Jan-05 23:32N 62°14' W 006°48'0 0.0
2015-Jan-05 22:32N 62°14' W 006°48'0 0.0
2015-Jan-05 21:32N 62°14' W 006°48'0 0.0
2015-Jan-05 20:32N 62°14' W 006°48'0 0.0
2015-Jan-05 19:32N 62°14' W 006°48'0 0.0
2015-Jan-05 18:32N 62°14' W 006°48'0 0.0
2015-Jan-05 17:32N 62°14' W 006°48'0 0.0
2015-Jan-05 16:32N 62°14' W 006°48'0 0.0
2015-Jan-05 15:32N 62°14' W 006°48'0 0.0
2015-Jan-05 14:32N 62°14' W 006°48'0 0.0
2015-Jan-05 13:32N 62°14' W 006°48'0 0.0
2015-Jan-05 12:32N 62°14' W 006°48'0 0.0
2015-Jan-05 11:32N 62°14' W 006°48'0 0.0
2015-Jan-05 10:32N 62°14' W 006°48'0 0.0
2015-Jan-05 09:32N 62°14' W 006°48'0 0.0
2015-Jan-05 08:32N 62°14' W 006°48'0 0.0
2015-Jan-05 07:32N 62°14' W 006°48'0 0.0
2015-Jan-05 06:32N 62°14' W 006°48'0 0.0
2015-Jan-05 05:32N 62°14' W 006°48'0 0.0
2015-Jan-05 04:32N 62°14' W 006°48'0 0.0
2015-Jan-05 03:32N 62°14' W 006°48'0 0.0
2015-Jan-05 02:32N 62°14' W 006°48'0 0.0
2015-Jan-05 01:32N 62°14' W 006°48'0 0.0
2015-Jan-05 00:29N 62°14' W 006°48'0 0.0
2015-Jan-04 23:32N 62°14' W 006°48'0 0.0
2015-Jan-04 22:32N 62°14' W 006°48'0 0.0
2015-Jan-04 21:32N 62°14' W 006°48'0 0.0
2015-Jan-04 20:32N 62°14' W 006°48'0 0.0
2015-Jan-04 19:32N 62°14' W 006°48'0 0.0
2015-Jan-04 18:32N 62°14' W 006°48'0 0.0
2015-Jan-04 17:32N 62°14' W 006°48'0 0.0
2015-Jan-04 16:32N 62°14' W 006°48'0 0.0
2015-Jan-04 15:32N 62°14' W 006°48'0 0.0
2015-Jan-04 14:32N 62°14' W 006°48'0 0.0
2015-Jan-04 13:32N 62°14' W 006°48'  
Track history (hours):
 
Tides and Currents Weather Stations Pressure Air Temp Water Temp Dewpoint Dewpoint Depression Visibility Wind Speed Wind Dir Waves Ship Positions

Green Lofoten

Last reported at 2015-Jan-14 13:18 UTC. Time now 2015-Jan-30 10:57 UTC.
Position N 54°14' W 005°10'.
Warning: this ship's position is 15 days out of date.

Length 98 m; draft 6.3 m.

Type: Cargo ship. MMSI: 212857000.

Date/timePositionNaut miles runAvg speedWind from/ knotsBaromVisibWave heightAir tempDewpointWater temp
2015-Jan-14 13:18N 54°14' W 005°10'5 6.9
2015-Jan-14 12:33N 54°19' W 005°10'7 7.1
2015-Jan-14 11:33N 54°26' W 005°10'7 7.0
2015-Jan-14 10:33N 54°33' W 005°10'7 6.9
2015-Jan-14 09:33N 54°40' W 005°12'8 7.6
2015-Jan-14 08:33N 54°46' W 005°20'8 7.7
2015-Jan-14 07:33N 54°52' W 005°28'9 8.0
2015-Jan-14 06:29N 54°59' W 005°37'40 9.1
2015-Jan-14 02:07N 55°27' W 006°26'610.1
2015-Jan-14 01:33N 55°30' W 006°34'1312.7
2015-Jan-14 00:33N 55°37' W 006°53'147 9.0
2015-Jan-13 08:12N 58°02' W 006°14'812.2
2015-Jan-13 07:33N 58°10' W 006°10'2 2.4
2015-Jan-13 06:33N 58°12' W 006°07'2 1.6
2015-Jan-13 05:33N 58°13' W 006°06'2 2.2
2015-Jan-13 04:33N 58°15' W 006°03'2 2.1
2015-Jan-13 03:33N 58°17' W 006°01'1 1.4
2015-Jan-13 02:33N 58°18' W 006°01'1 1.2
2015-Jan-13 01:33N 58°19' W 006°02'1 1.2
2015-Jan-13 00:33N 58°20' W 006°04'2 1.8
2015-Jan-12 23:33N 58°22' W 006°04'2 1.8
2015-Jan-12 22:33N 58°24' W 006°05'1 0.6
2015-Jan-12 21:33N 58°23' W 006°05'12 3.6
2015-Jan-12 18:16N 58°11' W 006°08'3 4.6
2015-Jan-12 17:34N 58°09' W 006°12'6 6.2
2015-Jan-12 16:33N 58°03' W 006°18'1 0.4
2015-Jan-12 13:22N 58°04' W 006°17'2 2.1
2015-Jan-12 12:27N 58°06' W 006°17'1 1.4
2015-Jan-12 11:33N 58°07' W 006°15'1 1.5
2015-Jan-12 10:33N 58°08' W 006°13'1 1.2
2015-Jan-12 09:33N 58°09' W 006°11'1 1.3
2015-Jan-12 08:33N 58°10' W 006°09'1 1.2
2015-Jan-12 07:33N 58°11' W 006°08'1 1.3
2015-Jan-12 06:34N 58°12' W 006°07'1 1.3
2015-Jan-12 05:33N 58°13' W 006°06'1 1.4
2015-Jan-12 04:33N 58°15' W 006°05'2 2.0
2015-Jan-12 03:34N 58°17' W 006°04'5 5.4
2015-Jan-12 02:33N 58°11' W 006°06'1 1.3
2015-Jan-12 01:33N 58°10' W 006°08'1 1.0
2015-Jan-12 00:33N 58°11' W 006°07'4 0.6
2015-Jan-11 17:33N 58°15' W 006°04'1 0.8
2015-Jan-11 16:33N 58°16' W 006°04'3 2.6
2015-Jan-11 15:33N 58°18' W 006°05'5 5.2
2015-Jan-11 14:33N 58°13' W 006°05'5 5.0
2015-Jan-11 13:33N 58°09' W 006°11'4 4.2
2015-Jan-11 12:33N 58°05' W 006°15'5 4.5
2015-Jan-11 11:33N 58°01' W 006°16'1 0.9
2015-Jan-11 10:33N 58°02' W 006°17'4 3.6
2015-Jan-11 09:33N 58°05' W 006°16'3 3.4
2015-Jan-11 08:33N 58°08' W 006°12'3 2.8
2015-Jan-11 07:33N 58°10' W 006°08'3 3.4
2015-Jan-11 06:33N 58°12' W 006°03'3 3.2
2015-Jan-11 05:34N 58°14' W 005°58'3 3.5
2015-Jan-11 04:33N 58°12' W 006°03'4 4.5
2015-Jan-11 03:33N 58°09' W 006°10'4 3.9
2015-Jan-11 02:33N 58°06' W 006°15'3 3.3
2015-Jan-11 01:33N 58°03' W 006°16'3 3.3
2015-Jan-11 00:33N 57°60' W 006°17'3 2.7
2015-Jan-10 23:33N 58°03' W 006°16'5 5.1
2015-Jan-10 22:33N 58°08' W 006°14'5 5.0
2015-Jan-10 21:33N 58°10' W 006°06'5 4.8
2015-Jan-10 20:33N 58°13' W 005°59'7 7.4
2015-Jan-10 19:33N 58°17' W 005°47'1310.0
2015-Jan-10 18:15N 58°23' W 005°25'195 7.7
2015-Jan-09 17:05N 61°36' W 006°26'611.8
2015-Jan-09 16:33N 61°42' W 006°27'1212.2
2015-Jan-09 15:33N 61°55' W 006°28'1312.8
2015-Jan-09 14:34N 62°07' W 006°31'1110.1
2015-Jan-09 13:29N 62°14' W 006°48'0 0.0
2015-Jan-09 12:32N 62°14' W 006°48'0 0.0
2015-Jan-09 11:26N 62°14' W 006°48'0 0.0
2015-Jan-09 10:26N 62°14' W 006°48'0 0.0
2015-Jan-09 09:26N 62°14' W 006°48'0 0.0
2015-Jan-09 08:29N 62°14' W 006°48'0 0.0
2015-Jan-09 07:32N 62°14' W 006°48'0 0.0
2015-Jan-09 06:32N 62°14' W 006°48'0 0.0
2015-Jan-09 05:32N 62°14' W 006°48'0 0.0
2015-Jan-09 04:32N 62°14' W 006°48'0 0.0
2015-Jan-09 03:32N 62°14' W 006°48'0 0.0
2015-Jan-09 02:11N 62°14' W 006°48'0 0.0
2015-Jan-09 01:23N 62°14' W 006°48'0 0.0
2015-Jan-09 00:32N 62°14' W 006°48'0 0.0
2015-Jan-08 22:32N 62°14' W 006°48'0 0.0
2015-Jan-08 21:32N 62°14' W 006°48'0 0.0
2015-Jan-08 20:32N 62°14' W 006°48'0 0.0
2015-Jan-08 19:32N 62°14' W 006°48'0 0.0
2015-Jan-08 18:32N 62°14' W 006°48'0 0.0
2015-Jan-08 17:32N 62°14' W 006°48'0 0.0
2015-Jan-08 16:32N 62°14' W 006°48'0 0.0
2015-Jan-08 15:32N 62°14' W 006°48'0 0.0
2015-Jan-08 14:32N 62°14' W 006°48'0 0.0
2015-Jan-08 13:32N 62°14' W 006°48'0 0.0
2015-Jan-08 12:32N 62°14' W 006°48'0 0.0
2015-Jan-08 11:32N 62°14' W 006°48'0 0.0
2015-Jan-08 08:18N 62°14' W 006°48'0 0.0
2015-Jan-08 07:27N 62°14' W 006°48'0 0.0
2015-Jan-08 06:26N 62°14' W 006°48'0 0.0
2015-Jan-08 05:29N 62°14' W 006°48'0 0.0
2015-Jan-08 04:32N 62°14' W 006°48'0 0.0
2015-Jan-08 03:47N 62°14' W 006°48'0 0.0
2015-Jan-07 20:32N 62°14' W 006°48'0 0.0
2015-Jan-07 19:29N 62°14' W 006°48'0 0.0
2015-Jan-07 18:32N 62°14' W 006°48'0 0.0
2015-Jan-07 17:29N 62°14' W 006°48'0 0.0
2015-Jan-07 16:32N 62°14' W 006°48'0 0.0
2015-Jan-07 15:32N 62°14' W 006°48'0 0.0
2015-Jan-07 14:32N 62°14' W 006°48'0 0.0
2015-Jan-07 13:32N 62°14' W 006°48'0 0.0
2015-Jan-07 12:33N 62°14' W 006°48'0 0.0
2015-Jan-07 11:33N 62°14' W 006°48'0 0.0
2015-Jan-07 10:27N 62°14' W 006°48'0 0.0
2015-Jan-07 09:33N 62°14' W 006°48'0 0.0
2015-Jan-07 08:33N 62°14' W 006°48'0 0.0
2015-Jan-07 07:27N 62°14' W 006°48'0 0.0
2015-Jan-07 06:30N 62°14' W 006°48'0 0.0
2015-Jan-07 05:33N 62°14' W 006°48'0 0.0
2015-Jan-07 04:33N 62°14' W 006°48'0 0.0
2015-Jan-07 03:30N 62°14' W 006°48'0 0.0
2015-Jan-07 02:33N 62°14' W 006°48'0 0.0
2015-Jan-07 01:33N 62°14' W 006°48'0 0.0
2015-Jan-07 00:30N 62°14' W 006°48'0 0.0
2015-Jan-06 23:33N 62°14' W 006°48'0 0.0
2015-Jan-06 22:33N 62°14' W 006°48'0 0.0
2015-Jan-06 21:33N 62°14' W 006°48'0 0.0
2015-Jan-06 20:33N 62°14' W 006°48'0 0.0
2015-Jan-06 19:33N 62°14' W 006°48'0 0.0
2015-Jan-06 18:33N 62°14' W 006°48'0 0.0
2015-Jan-06 17:32N 62°14' W 006°48'0 0.0
2015-Jan-06 16:32N 62°14' W 006°48'0 0.0
2015-Jan-06 15:32N 62°14' W 006°48'0 0.0
2015-Jan-06 14:32N 62°14' W 006°48'0 0.0
2015-Jan-06 13:32N 62°14' W 006°48'0 0.0
2015-Jan-06 12:32N 62°14' W 006°48'0 0.0
2015-Jan-06 11:32N 62°14' W 006°48'0 0.0
2015-Jan-06 10:32N 62°14' W 006°48'0 0.0
2015-Jan-06 09:26N 62°14' W 006°48'0 0.0
2015-Jan-06 08:32N 62°14' W 006°48'0 0.0
2015-Jan-06 07:32N 62°14' W 006°48'0 0.0
2015-Jan-06 06:32N 62°14' W 006°48'0 0.0
2015-Jan-06 05:32N 62°14' W 006°48'0 0.0
2015-Jan-06 04:29N 62°14' W 006°48'0 0.0
2015-Jan-06 03:32N 62°14' W 006°48'0 0.0
2015-Jan-06 02:32N 62°14' W 006°48'0 0.0
2015-Jan-06 01:32N 62°14' W 006°48'0 0.0
2015-Jan-06 00:32N 62°14' W 006°48'0 0.0
2015-Jan-05 23:32N 62°14' W 006°48'0 0.0
2015-Jan-05 22:32N 62°14' W 006°48'0 0.0
2015-Jan-05 21:32N 62°14' W 006°48'0 0.0
2015-Jan-05 20:32N 62°14' W 006°48'0 0.0
2015-Jan-05 19:32N 62°14' W 006°48'0 0.0
2015-Jan-05 18:32N 62°14' W 006°48'0 0.0
2015-Jan-05 17:32N 62°14' W 006°48'0 0.0
2015-Jan-05 16:32N 62°14' W 006°48'0 0.0
2015-Jan-05 15:32N 62°14' W 006°48'0 0.0
2015-Jan-05 14:32N 62°14' W 006°48'0 0.0
2015-Jan-05 13:32N 62°14' W 006°48'0 0.0
2015-Jan-05 12:32N 62°14' W 006°48'0 0.0
2015-Jan-05 11:32N 62°14' W 006°48'0 0.0
2015-Jan-05 10:32N 62°14' W 006°48'0 0.0
2015-Jan-05 09:32N 62°14' W 006°48'0 0.0
2015-Jan-05 08:32N 62°14' W 006°48'0 0.0
2015-Jan-05 07:32N 62°14' W 006°48'0 0.0
2015-Jan-05 06:32N 62°14' W 006°48'0 0.0
2015-Jan-05 05:32N 62°14' W 006°48'0 0.0
2015-Jan-05 04:32N 62°14' W 006°48'0 0.0
2015-Jan-05 03:32N 62°14' W 006°48'0 0.0
2015-Jan-05 02:32N 62°14' W 006°48'0 0.0
2015-Jan-05 01:32N 62°14' W 006°48'0 0.0
2015-Jan-05 00:29N 62°14' W 006°48'0 0.0
2015-Jan-04 23:32N 62°14' W 006°48'0 0.0
2015-Jan-04 22:32N 62°14' W 006°48'0 0.0
2015-Jan-04 21:32N 62°14' W 006°48'0 0.0
2015-Jan-04 20:32N 62°14' W 006°48'0 0.0
2015-Jan-04 19:32N 62°14' W 006°48'0 0.0
2015-Jan-04 18:32N 62°14' W 006°48'0 0.0
2015-Jan-04 17:32N 62°14' W 006°48'0 0.0
2015-Jan-04 16:32N 62°14' W 006°48'0 0.0
2015-Jan-04 15:32N 62°14' W 006°48'0 0.0
2015-Jan-04 14:32N 62°14' W 006°48'0 0.0
2015-Jan-04 13:32N 62°14' W 006°48'  

Dump ship's entire track history